Flight Track Log - Related Links

Times and Time Zones

All times are in EDT time to prevent confusion due to time zone crossing. See the PDT4253 flight status page for this flight to view local times or setup timezone preferences in your user account.

Time Position Orientation Groundspeed Altitude Reporting Facility
EDT Latitude Longitude Course Direction KTS MPH feet Rate Location/Type
11:24AM 35.6278 -77.3528 348° North 253 291 2,200  Level Washington Center
11:25AM 35.6714 -77.3639 348° North 192 221 3,200 942 Climbing Washington Center
11:26AM 35.6875 -77.4078 294° West 136 157 4,100 885 Climbing Washington Center
11:27AM 35.6908 -77.4589 275° West 127 146 5,000 908 Climbing Washington Center
11:28AM 35.6942 -77.5153 274° West 151 174 5,900 915 Climbing Washington Center
11:29AM 35.6972 -77.5742 274° West 165 190 6,800 893 Climbing Washington Center
11:30AM 35.7047 -77.6306 279° West 170 196 7,700 885 Climbing Washington Center
11:31AM 35.7058 -77.6894 271° West 170 196 8,600 893 Climbing Washington Center
11:32AM 35.7089 -77.7483 274° West 175 201 9,500 712 Climbing Washington Center
11:33AM 35.7119 -77.8100 274° West 180 207 10,000 254 Climbing Washington Center
11:34AM 35.7192 -77.8767 278° West 180 207 10,000  Level Washington Center
11:35AM 35.7197 -77.9508 271° West 225 259 10,000  Level Washington Center
11:36AM 35.7286 -78.0306 278° West 224 258 10,000  Level Washington Center
11:37AM 35.7331 -78.1100 274° West 234 269 10,000  Level Washington Center
11:38AM 35.7378 -78.1894 274° West 234 269 10,000  Level Washington Center
11:38AM 35.7386 -78.2483 271° West 237 273 10,000  Level Washington Center
11:39AM 35.7414 -78.3122 273° West 237 273 10,000  Level Washington Center
11:40AM 35.7467 -78.3533 279° West 234 269 10,000  Level Washington Center
11:40AM 35.7478 -78.3919 272° West 236 272 10,000  Level Washington Center
11:41AM 35.7531 -78.4331 279° West 234 269 10,000  Level Washington Center
11:41AM 35.7519 -78.4739 268° West 237 273 10,000  Level Washington Center
11:42AM 35.7561 -78.5661 273° West 239 275 10,000  Level Washington Center
11:43AM 35.7603 -78.6533 273° West 239 275 10,000  Level Washington Center
11:44AM 35.7642 -78.7356 273° West 239 275 10,000  Level Washington Center
11:45AM 35.7686 -78.8097 274° West 239 275 10,000  Level Washington Center
11:47AM 35.7742 -78.9125 274° West 240 276 10,000  Level Washington Center
11:47AM 35.7767 -78.9689 273° West 237 273 10,000  Level Washington Center
11:48AM 35.7828 -79.0486 275° West 238 274 10,000  Level Washington Center
11:49AM 35.7847 -79.1256 272° West 238 274 10,000 -93 Level Washington Center
11:51AM 35.7890 -79.2150 273° West  Level FlightAware Approximate
11:58AM 35.8003 -79.6973 270° West  Level FlightAware Approximate
11:59AM 35.8004 -79.7663 270° West  Level FlightAware Approximate
12:00PM 35.8006 -79.8353 270° West  Level FlightAware Approximate
12:01PM 35.8007 -79.9042 270° West  Level FlightAware Approximate
12:02PM 35.8007 -79.9732 270° West  Level FlightAware Approximate
12:02PM 35.7642 -80.1897 270° West 247 284 8,700  Level Atlanta Center
12:03PM 35.8007 -80.0421 270° West  Level FlightAware Approximate
12:03PM 35.7569 -80.2925 265° West 256 295 7,400  Level Atlanta Center
12:04PM 35.8007 -80.1111 270° West  Level FlightAware Approximate
12:04PM 35.7494 -80.3875 264° West 255 293 6,200  Level Atlanta Center
12:05PM 35.8006 -80.1801 270° West  Level FlightAware Approximate
12:06PM 35.8004 -80.2668 270° West  Level FlightAware Approximate
12:06PM 35.7161 -80.4631 241° Southwest 244 281 6,000  Level Atlanta Center
12:07PM 35.8002 -80.3459 270° West  Level FlightAware Approximate
12:07PM 35.6631 -80.5011 210° Southwest 240 276 6,000  Level Atlanta Center
12:08PM 35.8000 -80.4250 270° West  Level FlightAware Approximate
12:08PM 35.6058 -80.5444 212° Southwest 241 277 6,000  Level Atlanta Center
12:09PM 35.5447 -80.5906 212° Southwest 242 278 6,000  Level Atlanta Center
12:10PM 35.4875 -80.6389 215° Southwest 242 278 6,000  Level Atlanta Center
12:11PM 35.4261 -80.6847 211° Southwest 244 281 6,000 -656 Level Atlanta Center
12:12PM 35.3711 -80.7303 214° Southwest 244 281 4,600 -1,131 Descending Atlanta Center
12:13PM 35.3208 -80.7958 227° Southwest 238 274 3,700 -885 Descending Atlanta Center

Login

Don't have an account? Register now (free) for customized features, flight alerts, and more!